createdAt,value
2023-04-18T00:01:28.764Z,21.60
2023-04-18T00:03:57.963Z,21.60
2023-04-18T00:06:25.887Z,21.60
2023-04-18T00:08:53.700Z,21.70
2023-04-18T00:11:21.503Z,21.60
2023-04-18T00:13:49.240Z,21.60
2023-04-18T00:16:18.286Z,21.70
2023-04-18T00:18:46.332Z,21.60
2023-04-18T00:21:14.119Z,21.70
2023-04-18T00:23:42.020Z,21.60
2023-04-18T00:26:09.861Z,21.60
2023-04-18T00:28:37.899Z,21.60
2023-04-18T00:31:05.833Z,21.60
2023-04-18T00:33:35.121Z,21.60
2023-04-18T00:36:03.289Z,21.60
2023-04-18T00:38:31.043Z,21.70
2023-04-18T00:40:58.790Z,21.60
2023-04-18T00:43:26.746Z,21.60
2023-04-18T00:45:56.902Z,21.60
2023-04-18T00:48:25.158Z,21.60
2023-04-18T00:50:56.918Z,21.60
2023-04-18T00:53:24.842Z,21.60
2023-04-18T00:55:52.654Z,21.60
2023-04-18T00:58:20.979Z,21.60
2023-04-18T01:00:49.289Z,21.60
2023-04-18T01:03:18.293Z,21.60
2023-04-18T01:05:47.324Z,21.60
2023-04-18T01:08:17.503Z,21.60
2023-04-18T01:10:46.224Z,21.60
2023-04-18T01:13:17.664Z,21.60
2023-04-18T01:15:46.599Z,21.60
2023-04-18T01:18:17.358Z,21.60
2023-04-18T01:20:47.546Z,21.60
2023-04-18T01:23:17.468Z,21.60
2023-04-18T01:25:49.084Z,21.60
2023-04-18T01:28:21.114Z,21.60
2023-04-18T01:30:49.566Z,21.60
2023-04-18T01:33:17.446Z,21.60
2023-04-18T01:35:48.103Z,21.60
2023-04-18T01:38:15.839Z,21.60
2023-04-18T01:40:43.724Z,21.60
2023-04-18T01:43:12.772Z,21.60
2023-04-18T01:45:40.540Z,21.60
2023-04-18T01:48:09.811Z,21.60
2023-04-18T01:50:37.599Z,21.60
2023-04-18T01:53:05.315Z,21.60
2023-04-18T01:55:33.082Z,21.60
2023-04-18T01:58:01.030Z,21.60
2023-04-18T02:00:30.173Z,21.60
2023-04-18T02:02:59.662Z,21.60
2023-04-18T02:05:27.969Z,21.60
2023-04-18T02:07:55.845Z,21.60
2023-04-18T02:10:23.777Z,21.60
2023-04-18T02:12:51.494Z,21.60
2023-04-18T02:15:19.726Z,21.60
2023-04-18T02:17:48.981Z,21.60
2023-04-18T02:20:16.840Z,21.60
2023-04-18T02:22:45.238Z,21.60
2023-04-18T02:25:12.928Z,21.60
2023-04-18T02:27:40.812Z,21.60
2023-04-18T02:30:09.451Z,21.60
2023-04-18T02:32:37.228Z,21.60
2023-04-18T02:35:06.934Z,21.60
2023-04-18T02:37:34.659Z,21.60
2023-04-18T02:40:02.364Z,21.60
2023-04-18T02:42:33.003Z,21.50
2023-04-18T02:45:02.177Z,21.60
2023-04-18T02:47:31.739Z,21.60
2023-04-18T02:50:03.361Z,21.60
2023-04-18T02:52:33.303Z,21.50
2023-04-18T02:55:01.110Z,21.60
2023-04-18T02:57:34.920Z,21.50
2023-04-18T03:00:23.809Z,21.60
2023-04-18T03:03:17.157Z,21.60
2023-04-18T03:05:56.745Z,21.50
2023-04-18T03:08:26.436Z,21.50
2023-04-18T03:10:56.251Z,21.50
2023-04-18T03:13:25.624Z,21.50
2023-04-18T03:15:53.564Z,21.50
2023-04-18T03:18:21.408Z,21.60
2023-04-18T03:20:49.341Z,21.50
2023-04-18T03:23:18.071Z,21.50
2023-04-18T03:25:47.931Z,21.60
2023-04-18T03:28:15.826Z,21.50
2023-04-18T03:30:43.629Z,21.50
2023-04-18T03:33:12.062Z,21.50
2023-04-18T03:35:40.244Z,21.60
2023-04-18T03:38:08.318Z,21.50
2023-04-18T03:40:39.291Z,21.50
2023-04-18T03:43:16.191Z,21.50
2023-04-18T03:45:47.058Z,21.60
2023-04-18T03:48:16.291Z,21.50
2023-04-18T03:50:46.054Z,21.60
2023-04-18T03:53:14.310Z,21.50
2023-04-18T03:55:42.577Z,21.50
2023-04-18T03:58:13.255Z,21.50
2023-04-18T04:00:43.306Z,21.50
2023-04-18T04:03:12.475Z,21.50
2023-04-18T04:05:41.034Z,21.60
2023-04-18T04:08:08.772Z,21.60
2023-04-18T04:10:36.563Z,21.50
2023-04-18T04:13:04.726Z,21.60
2023-04-18T04:15:35.184Z,21.50
2023-04-18T04:18:08.737Z,21.50
2023-04-18T04:20:39.809Z,21.50
2023-04-18T04:23:13.078Z,21.50
2023-04-18T04:25:42.308Z,21.50
2023-04-18T04:28:22.554Z,21.50
2023-04-18T04:30:55.445Z,21.50
2023-04-18T04:33:25.646Z,21.50
2023-04-18T04:35:56.254Z,21.50
2023-04-18T04:38:24.936Z,21.50
2023-04-18T04:40:55.767Z,21.50
2023-04-18T04:43:24.190Z,21.50
2023-04-18T04:45:52.912Z,21.50
2023-04-18T04:48:25.534Z,21.50
2023-04-18T04:50:55.796Z,21.50
2023-04-18T04:53:23.802Z,21.50
2023-04-18T04:55:52.771Z,21.50
2023-04-18T04:58:21.150Z,21.50
2023-04-18T05:01:07.672Z,21.50
2023-04-18T05:03:37.441Z,21.40
2023-04-18T05:06:06.398Z,21.50
2023-04-18T05:08:34.111Z,21.50
2023-04-18T05:11:02.378Z,21.50
2023-04-18T05:13:30.120Z,21.40
2023-04-18T05:15:59.172Z,21.50
2023-04-18T05:18:26.928Z,21.50
2023-04-18T05:20:56.768Z,21.50
2023-04-18T05:23:24.538Z,21.50
2023-04-18T05:25:52.410Z,21.50
2023-04-18T05:28:20.214Z,21.60
2023-04-18T05:30:47.930Z,21.60
2023-04-18T05:33:15.876Z,21.60
2023-04-18T05:35:43.690Z,21.60
2023-04-18T05:38:12.773Z,21.60
2023-04-18T05:40:40.470Z,21.60
2023-04-18T05:43:08.248Z,21.60
2023-04-18T05:45:36.131Z,21.60
2023-04-18T05:48:03.986Z,21.50
2023-04-18T05:50:31.740Z,21.50
2023-04-18T05:52:59.913Z,21.50
2023-04-18T05:55:29.065Z,21.60
2023-04-18T05:57:56.758Z,21.50
2023-04-18T06:00:24.884Z,21.50
2023-04-18T06:02:52.848Z,21.50
2023-04-18T06:05:21.447Z,21.50
2023-04-18T06:07:49.273Z,21.60
2023-04-18T06:10:17.094Z,21.50
2023-04-18T06:12:46.126Z,21.50
2023-04-18T06:15:13.861Z,21.50
2023-04-18T06:17:42.715Z,21.50
2023-04-18T06:20:11.532Z,21.50
2023-04-18T06:22:39.501Z,21.50
2023-04-18T06:25:09.923Z,21.50
2023-04-18T06:27:37.725Z,21.50
2023-04-18T06:30:08.579Z,21.50
2023-04-18T06:32:36.372Z,21.50
2023-04-18T06:35:04.457Z,21.50
2023-04-18T06:37:32.197Z,21.50
2023-04-18T06:40:00.075Z,21.50
2023-04-18T06:42:27.790Z,21.60
2023-04-18T06:44:55.673Z,21.50
2023-04-18T06:47:25.037Z,21.50
2023-04-18T06:49:52.768Z,21.50
2023-04-18T06:52:20.496Z,21.50
2023-04-18T06:54:48.237Z,21.50
2023-04-18T06:57:16.561Z,21.60
2023-04-18T06:59:44.272Z,21.50
2023-04-18T07:02:12.043Z,21.50
2023-04-18T07:04:41.446Z,21.50
2023-04-18T07:07:09.290Z,21.50
2023-04-18T07:09:36.995Z,21.50
2023-04-18T07:12:04.889Z,21.50
2023-04-18T07:14:34.231Z,21.50
2023-04-18T07:17:02.602Z,21.60
2023-04-18T07:19:30.424Z,21.60
2023-04-18T07:21:59.482Z,21.50
2023-04-18T07:24:27.263Z,21.60
2023-04-18T07:26:55.362Z,21.60
2023-04-18T07:29:23.098Z,21.50
2023-04-18T07:31:50.864Z,21.50
2023-04-18T07:34:18.567Z,21.50
2023-04-18T07:36:46.364Z,21.60
2023-04-18T07:39:15.447Z,21.50
2023-04-18T07:41:43.136Z,21.50
2023-04-18T07:44:10.836Z,21.50
2023-04-18T07:46:38.587Z,21.50
2023-04-18T07:49:06.328Z,21.60
2023-04-18T07:51:34.899Z,21.60
2023-04-18T07:54:02.903Z,21.60
2023-04-18T07:56:31.935Z,21.60
2023-04-18T07:58:59.633Z,21.60
2023-04-18T08:01:27.545Z,21.60
2023-04-18T08:03:57.646Z,21.60
2023-04-18T08:06:26.130Z,21.60
2023-04-18T08:08:53.848Z,21.60
2023-04-18T08:11:21.631Z,21.60
2023-04-18T08:13:50.707Z,21.60
2023-04-18T08:16:18.417Z,21.60
2023-04-18T08:18:46.130Z,21.60
2023-04-18T08:21:13.832Z,21.60
2023-04-18T08:23:41.573Z,21.60
2023-04-18T08:26:09.388Z,21.60
2023-04-18T08:28:37.134Z,21.60
2023-04-18T08:31:06.338Z,21.60
2023-04-18T08:33:34.054Z,21.60
2023-04-18T08:36:01.727Z,21.60
2023-04-18T08:38:29.426Z,21.60
2023-04-18T08:40:57.155Z,21.60
2023-04-18T08:43:25.301Z,21.60
2023-04-18T08:45:58.508Z,21.60
2023-04-18T08:48:28.719Z,21.60
2023-04-18T08:50:58.648Z,21.60
2023-04-18T08:53:27.202Z,21.60
2023-04-18T08:55:56.129Z,21.60
2023-04-18T08:58:24.407Z,21.60
2023-04-18T09:00:52.737Z,21.70
2023-04-18T09:06:16.197Z,21.60
2023-04-18T09:08:44.563Z,21.60
2023-04-18T09:11:22.695Z,21.60
2023-04-18T09:13:50.613Z,21.60
2023-04-18T09:16:19.342Z,21.60
2023-04-18T09:19:10.279Z,21.60
2023-04-18T09:21:41.846Z,21.60
2023-04-18T09:24:23.683Z,21.60
2023-04-18T09:26:53.669Z,21.60
2023-04-18T09:29:22.873Z,21.70
2023-04-18T09:32:01.605Z,21.70
2023-04-18T09:34:30.045Z,21.60
2023-04-18T09:37:09.989Z,21.70
2023-04-18T09:39:39.836Z,21.70
2023-04-18T09:42:07.876Z,21.70
2023-04-18T09:44:35.647Z,21.70
2023-04-18T09:47:03.521Z,21.70
2023-04-18T09:49:31.231Z,21.70
2023-04-18T09:51:59.988Z,21.70
2023-04-18T09:54:31.905Z,21.70
2023-04-18T09:57:00.773Z,21.70
2023-04-18T09:59:42.385Z,21.80
2023-04-18T10:02:16.194Z,21.80
2023-04-18T10:04:47.040Z,21.80
2023-04-18T10:07:17.273Z,21.80
2023-04-18T10:09:47.906Z,21.80
2023-04-18T10:12:17.414Z,21.80
2023-04-18T10:14:46.019Z,21.80
2023-04-18T10:17:15.522Z,21.80
2023-04-18T10:19:46.153Z,21.80
2023-04-18T10:22:14.230Z,21.80
2023-04-18T10:24:54.058Z,21.80
2023-04-18T10:27:58.877Z,21.90
2023-04-18T10:30:53.264Z,21.90
2023-04-18T10:33:31.065Z,21.90
2023-04-18T10:36:06.120Z,21.90
2023-04-18T10:38:35.490Z,22.00
2023-04-18T10:41:22.674Z,21.90
2023-04-18T10:44:18.152Z,21.90
2023-04-18T10:47:31.731Z,22.00
2023-04-18T10:50:06.632Z,22.00
2023-04-18T10:52:35.019Z,22.00
2023-04-18T10:55:10.846Z,22.00
2023-04-18T10:57:44.399Z,22.00
2023-04-18T11:00:14.617Z,22.00
2023-04-18T11:02:50.266Z,22.00
2023-04-18T11:05:24.051Z,22.00
2023-04-18T11:07:52.103Z,22.00
2023-04-18T11:10:21.504Z,22.00
2023-04-18T11:12:51.071Z,22.00
2023-04-18T11:15:21.614Z,22.00
2023-04-18T11:18:00.758Z,21.90
2023-04-18T11:20:29.202Z,21.90
2023-04-18T11:22:58.836Z,21.90
2023-04-18T11:25:28.762Z,21.90
2023-04-18T11:28:00.301Z,21.90
2023-04-18T11:30:28.665Z,21.90
2023-04-18T11:32:56.423Z,21.90
2023-04-18T11:35:24.261Z,21.90
2023-04-18T11:37:51.989Z,22.00
2023-04-18T11:40:19.701Z,22.00
2023-04-18T11:42:47.397Z,22.00
2023-04-18T11:45:16.960Z,22.00
2023-04-18T11:47:46.225Z,22.00
2023-04-18T11:50:14.702Z,22.00
2023-04-18T11:52:43.196Z,22.00
2023-04-18T11:55:17.388Z,22.00
2023-04-18T11:57:52.667Z,22.00
2023-04-18T12:00:32.654Z,22.10
2023-04-18T12:03:01.738Z,22.10
2023-04-18T12:05:31.851Z,22.10
2023-04-18T12:08:07.165Z,22.10
2023-04-18T12:10:35.778Z,22.10
2023-04-18T12:13:07.907Z,22.10
2023-04-18T12:15:40.267Z,22.10
2023-04-18T12:18:09.131Z,22.10
2023-04-18T12:20:38.006Z,22.10
2023-04-18T12:23:05.847Z,22.10
2023-04-18T12:25:34.696Z,22.10
2023-04-18T12:28:04.452Z,22.10
2023-04-18T12:30:36.851Z,22.10
2023-04-18T12:33:06.761Z,22.10
2023-04-18T12:35:34.542Z,22.10
2023-04-18T12:38:03.641Z,22.10
2023-04-18T12:40:31.678Z,22.10
2023-04-18T12:43:00.513Z,22.10
2023-04-18T12:45:30.330Z,22.10
2023-04-18T12:47:58.066Z,22.10
2023-04-18T12:50:27.989Z,22.10
2023-04-18T12:52:59.015Z,22.10
2023-04-18T12:55:27.120Z,22.10
2023-04-18T12:57:55.783Z,22.10
2023-04-18T13:00:25.007Z,22.10
2023-04-18T13:02:53.251Z,22.10
2023-04-18T13:05:23.125Z,22.10
2023-04-18T13:07:58.691Z,22.10
2023-04-18T13:10:33.069Z,22.10
2023-04-18T13:13:00.817Z,22.00
2023-04-18T13:15:28.541Z,22.00
2023-04-18T13:17:57.151Z,22.00
2023-04-18T13:20:24.996Z,22.00
2023-04-18T13:22:54.014Z,22.00
2023-04-18T13:25:21.854Z,22.00
2023-04-18T13:27:50.184Z,22.00
2023-04-18T13:30:17.889Z,22.00
2023-04-18T13:32:46.096Z,22.00
2023-04-18T13:35:14.160Z,22.00
2023-04-18T13:37:41.959Z,22.00
2023-04-18T13:40:11.832Z,22.00
2023-04-18T13:42:40.059Z,22.00
2023-04-18T13:45:08.459Z,22.00
2023-04-18T13:47:36.501Z,22.00
2023-04-18T13:50:04.398Z,22.00
2023-04-18T13:52:32.124Z,22.10
2023-04-18T13:54:59.828Z,22.00
2023-04-18T13:57:31.828Z,22.10
2023-04-18T13:59:59.578Z,22.10
2023-04-18T14:02:27.439Z,22.10
2023-04-18T14:04:55.543Z,22.10
2023-04-18T14:07:23.486Z,22.10
2023-04-18T14:09:53.319Z,22.10
2023-04-18T14:12:21.646Z,22.10
2023-04-18T14:14:50.660Z,22.10
2023-04-18T14:17:18.353Z,22.10
2023-04-18T14:19:46.094Z,22.10
2023-04-18T14:22:13.994Z,22.10
2023-04-18T14:24:41.709Z,22.10
2023-04-18T14:27:09.449Z,22.20
2023-04-18T14:29:37.148Z,22.10
2023-04-18T14:32:07.028Z,22.10
2023-04-18T14:34:36.656Z,22.20
2023-04-18T14:37:05.190Z,22.10
2023-04-18T14:39:32.891Z,22.10
2023-04-18T14:42:01.437Z,22.20
2023-04-18T14:44:30.562Z,22.20
2023-04-18T14:46:58.349Z,22.20
2023-04-18T14:49:27.455Z,22.20
2023-04-18T14:51:55.168Z,22.20
2023-04-18T14:54:23.119Z,22.20
2023-04-18T14:56:51.163Z,22.20
2023-04-18T14:59:19.146Z,22.20
2023-04-18T15:01:47.091Z,22.20
2023-04-18T15:04:15.229Z,22.20
2023-04-18T15:06:44.552Z,22.20
2023-04-18T15:09:12.241Z,22.20
2023-04-18T15:11:39.939Z,22.20
2023-04-18T15:14:07.689Z,22.20
2023-04-18T15:16:37.927Z,22.20
2023-04-18T15:19:05.901Z,22.10
2023-04-18T15:21:33.628Z,22.10
2023-04-18T15:24:02.686Z,22.10
2023-04-18T15:26:32.939Z,22.10
2023-04-18T15:29:02.311Z,22.10
2023-04-18T15:31:30.543Z,22.10
2023-04-18T15:33:58.318Z,22.10
2023-04-18T15:36:27.560Z,22.10
2023-04-18T15:38:55.294Z,22.00
2023-04-18T15:41:24.383Z,22.10
2023-04-18T15:43:53.710Z,22.10
2023-04-18T15:46:21.759Z,22.10
2023-04-18T15:48:49.499Z,22.10
2023-04-18T15:51:17.272Z,22.10
2023-04-18T15:53:44.984Z,22.10
2023-04-18T15:56:12.758Z,22.20
2023-04-18T15:58:41.807Z,22.20
2023-04-18T16:01:09.541Z,22.30
2023-04-18T16:03:37.648Z,22.30
2023-04-18T16:06:05.578Z,22.40
2023-04-18T16:08:33.532Z,22.40
2023-04-18T16:11:01.544Z,22.40
2023-04-18T16:13:29.330Z,22.50
2023-04-18T16:15:58.398Z,22.40
2023-04-18T16:18:26.196Z,22.50
2023-04-18T16:20:53.961Z,22.40
2023-04-18T16:23:21.971Z,22.50
2023-04-18T16:25:50.989Z,22.40
2023-04-18T16:28:18.778Z,22.40
2023-04-18T16:30:46.604Z,22.40
2023-04-18T16:33:16.929Z,22.40
2023-04-18T16:35:44.744Z,22.30
2023-04-18T16:38:12.409Z,22.40
2023-04-18T16:40:40.179Z,22.30
2023-04-18T16:43:08.006Z,22.30
2023-04-18T16:45:35.958Z,22.30
2023-04-18T16:48:03.739Z,22.30
2023-04-18T16:50:32.794Z,22.30
2023-04-18T16:53:01.503Z,22.30
2023-04-18T16:55:29.282Z,22.30
2023-04-18T16:57:56.967Z,22.20
2023-04-18T17:00:25.056Z,22.20
2023-04-18T17:02:55.156Z,22.20
2023-04-18T17:05:23.025Z,22.20
2023-04-18T17:07:52.165Z,22.20
2023-04-18T17:10:20.231Z,22.20
2023-04-18T17:12:49.263Z,22.20
2023-04-18T17:15:19.018Z,22.20
2023-04-18T17:17:46.833Z,22.20
2023-04-18T17:20:15.888Z,22.20
2023-04-18T17:22:43.600Z,22.20
2023-04-18T17:25:12.901Z,22.20
2023-04-18T17:27:41.328Z,22.20
2023-04-18T17:30:10.010Z,22.20
2023-04-18T17:32:42.655Z,22.20
2023-04-18T17:35:11.476Z,22.20
2023-04-18T17:37:39.462Z,22.20
2023-04-18T17:40:09.710Z,22.20
2023-04-18T17:42:38.847Z,22.20
2023-04-18T17:45:09.118Z,22.10
2023-04-18T17:47:37.334Z,22.10
2023-04-18T17:50:05.381Z,22.10
2023-04-18T17:52:33.282Z,22.10
2023-04-18T17:55:01.404Z,22.10
2023-04-18T17:57:30.394Z,22.10
2023-04-18T17:59:59.487Z,22.10
2023-04-18T18:02:28.247Z,22.10
2023-04-18T18:04:56.277Z,22.10
2023-04-18T18:07:24.019Z,22.10
2023-04-18T18:09:51.762Z,22.10
2023-04-18T18:12:19.566Z,22.10
2023-04-18T18:14:47.518Z,22.10
2023-04-18T18:17:16.811Z,22.10
2023-04-18T18:19:44.799Z,22.10
2023-04-18T18:22:12.596Z,22.10
2023-04-18T18:24:40.283Z,22.10
2023-04-18T18:27:08.042Z,22.10
2023-04-18T18:29:35.762Z,22.10
2023-04-18T18:32:03.543Z,22.10
2023-04-18T18:34:32.831Z,22.10
2023-04-18T18:37:00.553Z,22.10
2023-04-18T18:39:28.249Z,22.10
2023-04-18T18:41:56.126Z,22.10
2023-04-18T18:44:24.136Z,22.00
2023-04-18T18:46:52.040Z,22.00
2023-04-18T18:49:19.842Z,22.10
2023-04-18T18:51:48.961Z,22.00
2023-04-18T18:54:16.650Z,22.00
2023-04-18T18:56:45.204Z,22.00
2023-04-18T18:59:13.165Z,22.00
2023-04-18T19:01:41.227Z,22.00
2023-04-18T19:04:09.161Z,22.00
2023-04-18T19:06:36.960Z,22.00
2023-04-18T19:09:06.044Z,22.00
2023-04-18T19:11:33.764Z,22.00
2023-04-18T19:14:01.502Z,22.00
2023-04-18T19:16:30.095Z,22.00
2023-04-18T19:18:57.839Z,22.00
2023-04-18T19:21:25.837Z,22.00
2023-04-18T19:23:53.526Z,22.00
2023-04-18T19:26:22.956Z,22.00
2023-04-18T19:28:50.709Z,22.00
2023-04-18T19:31:18.476Z,22.00
2023-04-18T19:33:46.180Z,22.00
2023-04-18T19:36:13.893Z,22.00
2023-04-18T19:38:41.577Z,22.00
2023-04-18T19:41:09.287Z,22.00
2023-04-18T19:43:40.205Z,22.00
2023-04-18T19:46:07.971Z,22.00
2023-04-18T19:48:35.949Z,22.00
2023-04-18T19:51:04.577Z,22.00
2023-04-18T19:53:32.309Z,22.00
2023-04-18T19:56:00.040Z,22.00
2023-04-18T19:58:35.190Z,22.00
2023-04-18T20:01:05.872Z,22.00
2023-04-18T20:03:34.440Z,22.00
2023-04-18T20:06:02.636Z,22.00
2023-04-18T20:08:30.375Z,22.00
2023-04-18T20:10:58.129Z,22.00
2023-04-18T20:13:25.873Z,22.00
2023-04-18T20:15:53.813Z,22.00
2023-04-18T20:18:23.858Z,22.00
2023-04-18T20:20:51.682Z,22.00
2023-04-18T20:23:19.398Z,22.00
2023-04-18T20:25:47.126Z,22.00
2023-04-18T20:28:14.807Z,22.00
2023-04-18T20:30:44.553Z,22.00
2023-04-18T20:33:12.366Z,21.90
2023-04-18T20:35:41.466Z,21.90
2023-04-18T20:38:11.005Z,21.90
2023-04-18T20:40:38.882Z,21.90
2023-04-18T20:43:06.737Z,21.90
2023-04-18T20:45:37.524Z,21.90
2023-04-18T20:48:06.352Z,21.90
2023-04-18T20:50:34.080Z,21.90
2023-04-18T20:53:03.897Z,21.90
2023-04-18T20:55:31.649Z,21.90
2023-04-18T20:57:59.445Z,21.90
2023-04-18T21:00:27.499Z,21.90
2023-04-18T21:02:55.338Z,21.90
2023-04-18T21:05:23.411Z,21.90
2023-04-18T21:07:51.098Z,21.90
2023-04-18T21:10:20.357Z,21.90
2023-04-18T21:12:48.033Z,21.90
2023-04-18T21:15:15.960Z,21.90
2023-04-18T21:17:43.656Z,21.90
2023-04-18T21:20:11.934Z,21.80
2023-04-18T21:22:39.670Z,21.80
2023-04-18T21:25:08.527Z,21.80
2023-04-18T21:27:37.571Z,21.80
2023-04-18T21:30:07.246Z,21.80
2023-04-18T21:32:35.052Z,21.80
2023-04-18T21:35:02.831Z,21.80
2023-04-18T21:37:32.090Z,21.80
2023-04-18T21:40:01.020Z,21.80
2023-04-18T21:42:28.799Z,21.80
2023-04-18T21:44:58.018Z,21.80
2023-04-18T21:47:25.836Z,21.90
2023-04-18T21:49:53.623Z,21.80
2023-04-18T21:52:21.378Z,21.80
2023-04-18T21:54:49.067Z,21.80
2023-04-18T21:57:16.839Z,21.80
2023-04-18T21:59:44.604Z,21.80
2023-04-18T22:02:13.857Z,21.80
2023-04-18T22:04:42.667Z,21.80
2023-04-18T22:07:11.386Z,21.80
2023-04-18T22:09:39.728Z,21.80
2023-04-18T22:12:07.667Z,21.80
2023-04-18T22:14:35.441Z,21.80
2023-04-18T22:17:04.599Z,21.80
2023-04-18T22:19:35.552Z,21.80
2023-04-18T22:22:03.422Z,21.80
2023-04-18T22:24:31.187Z,21.80
2023-04-18T22:26:58.988Z,21.80
2023-04-18T22:29:26.744Z,21.80
2023-04-18T22:31:54.492Z,21.80
2023-04-18T22:34:22.321Z,21.80
2023-04-18T22:36:52.021Z,21.80
2023-04-18T22:39:19.876Z,21.80
2023-04-18T22:41:47.638Z,21.80
2023-04-18T22:44:15.807Z,21.80
2023-04-18T22:46:44.560Z,21.80
2023-04-18T22:49:12.415Z,21.80
2023-04-18T22:51:40.279Z,21.80
2023-04-18T22:54:09.288Z,21.80
2023-04-18T22:56:37.001Z,21.80
2023-04-18T22:59:04.756Z,21.80
2023-04-18T23:01:32.502Z,21.80
2023-04-18T23:04:00.545Z,21.80
2023-04-18T23:06:29.898Z,21.70
2023-04-18T23:08:57.579Z,21.80
2023-04-18T23:11:26.761Z,21.80
2023-04-18T23:13:54.467Z,21.70
2023-04-18T23:16:22.917Z,21.70
2023-04-18T23:18:50.770Z,21.80
2023-04-18T23:21:18.674Z,21.70
2023-04-18T23:23:46.436Z,21.70
2023-04-18T23:26:14.555Z,21.70
2023-04-18T23:28:43.735Z,21.70
2023-04-18T23:31:11.606Z,21.70
2023-04-18T23:33:39.337Z,21.70
2023-04-18T23:36:07.794Z,21.70
2023-04-18T23:38:37.090Z,21.70
2023-04-18T23:41:04.793Z,21.70
2023-04-18T23:43:32.556Z,21.70
2023-04-18T23:46:01.633Z,21.70
2023-04-18T23:48:29.311Z,21.70
2023-04-18T23:50:57.071Z,21.70
2023-04-18T23:53:25.069Z,21.70
2023-04-18T23:55:54.397Z,21.70
2023-04-18T23:58:22.129Z,21.70
